Time;durP1;ratioP1;P1;durP2;ratioP2;P2;SDS_P1;SDS_P2;PMS_P1;PMS_P2;Temp;Humidity;BMP_temperature;BMP_pressure;BME280_temperature;BME280_humidity;BME280_pressure;Samples;Min_cycle;Max_cycle;Signal;HPM_P1;HPM_P2
2022/09/25 00:00:45;;;;;;;3.77;3.42;;;;;;;8.88;92.36;99599.23;1710664;83;21026;-69
2022/09/25 00:03:12;;;;;;;4.00;3.30;;;;;;;8.87;92.41;99597.63;1710068;83;20952;-72
2022/09/25 00:05:40;;;;;;;4.10;2.87;;;;;;;8.85;92.42;99591.67;1670716;83;21029;-69
2022/09/25 00:08:07;;;;;;;3.75;2.65;;;;;;;8.84;92.43;99590.56;1682759;83;21019;-70
2022/09/25 00:10:40;;;;;;;3.10;2.80;;;;;;;8.80;92.53;99592.92;1710196;83;21029;-70
2022/09/25 00:13:06;;;;;;;8.40;2.98;;;;;;;8.78;92.56;99588.31;1710150;83;21552;-71
2022/09/25 00:15:33;;;;;;;4.17;3.20;;;;;;;8.78;92.59;99582.95;1709469;83;21578;-71
2022/09/25 00:18:00;;;;;;;3.60;3.20;;;;;;;8.80;92.52;99591.58;1709410;83;21634;-68
2022/09/25 00:20:27;;;;;;;3.47;3.17;;;;;;;8.80;92.38;99588.08;1710250;83;21668;-65
2022/09/25 00:22:53;;;;;;;3.47;3.08;;;;;;;8.79;92.25;99588.60;1706030;83;21589;-68
2022/09/25 00:25:20;;;;;;;2.85;2.65;;;;;;;8.78;92.16;99589.66;1685040;83;20988;-71
2022/09/25 00:27:49;;;;;;;3.37;2.90;;;;;;;8.77;92.12;99597.95;1680130;85;21032;-70
2022/09/25 00:30:15;;;;;;;4.70;3.10;;;;;;;8.75;92.14;99589.62;1680040;85;21088;-69
2022/09/25 00:32:43;;;;;;;3.95;3.10;;;;;;;8.76;92.04;99586.41;1695908;83;21051;-70
2022/09/25 00:35:09;;;;;;;2.95;2.65;;;;;;;8.77;91.96;99585.37;1704847;83;21050;-70
2022/09/25 00:37:37;;;;;;;5.45;3.02;;;;;;;8.77;91.79;99604.14;1709369;83;21041;-70
2022/09/25 00:40:05;;;;;;;3.37;3.08;;;;;;;8.75;91.68;99590.96;1701886;83;21030;-70
2022/09/25 00:42:32;;;;;;;2.62;2.20;;;;;;;8.74;91.62;99593.88;1681988;82;21062;-70
2022/09/25 00:45:06;;;;;;;3.37;3.08;;;;;;;8.76;91.60;99597.14;1729591;82;22134;-70
2022/09/25 00:47:55;;;;;;;3.27;2.98;;;;;;;8.75;91.48;99588.28;1674034;84;21571;-71
2022/09/25 00:50:45;;;;;;;5.03;3.22;;;;;;;8.77;91.39;99585.89;1730684;82;21037;-69
2022/09/25 00:53:17;;;;;;;2.87;2.60;;;;;;;8.78;91.24;99587.52;1708011;83;21390;-71
2022/09/25 00:55:43;;;;;;;3.30;2.62;;;;;;;8.77;91.07;99586.70;1712097;83;20988;-70
2022/09/25 00:58:13;;;;;;;3.22;2.70;;;;;;;8.75;91.00;99591.48;1729661;82;21035;-68
2022/09/25 01:00:40;;;;;;;4.40;3.05;;;;;;;8.76;90.99;99599.83;1717152;82;21109;-69
2022/09/25 01:03:07;;;;;;;2.98;2.67;;;;;;;8.76;90.75;99597.14;1728798;83;20967;-69
2022/09/25 01:05:38;;;;;;;4.78;3.15;;;;;;;8.76;90.64;99599.83;1699554;83;21067;-67
2022/09/25 01:08:06;;;;;;;2.95;2.65;;;;;;;8.76;90.51;99598.48;1728823;83;21000;-68
2022/09/25 01:10:35;;;;;;;3.17;2.83;;;;;;;8.75;90.43;99600.34;1700488;83;21016;-67
2022/09/25 01:13:01;;;;;;;5.03;2.95;;;;;;;8.74;90.30;99592.00;1669361;84;22556;-69
2022/09/25 01:15:53;;;;;;;2.95;2.75;;;;;;;8.73;90.20;99595.73;1731336;82;21564;-68
2022/09/25 01:18:34;;;;;;;3.67;3.37;;;;;;;8.74;90.11;99604.59;1711631;82;21545;-68
2022/09/25 01:21:07;;;;;;;7.28;5.12;;;;;;;8.73;90.01;99593.05;1725488;81;21036;-68
2022/09/25 01:24:02;;;;;;;4.03;2.70;;;;;;;8.74;89.93;99587.17;1730968;82;21522;-68
2022/09/25 01:27:09;;;;;;;2.80;2.60;;;;;;;8.72;89.79;99587.95;1730389;82;21085;-68
2022/09/25 01:29:59;;;;;;;4.78;2.75;;;;;;;8.71;89.79;99594.36;1730366;82;21016;-69
2022/09/25 01:32:52;;;;;;;2.55;2.35;;;;;;;8.70;89.77;99596.75;1730405;82;21102;-69
2022/09/25 01:35:33;;;;;;;8.00;2.52;;;;;;;8.69;89.70;99595.11;1730308;81;21095;-69
2022/09/25 01:38:30;;;;;;;2.58;2.37;;;;;;;8.68;89.62;99589.48;1730273;82;21490;-67
2022/09/25 01:41:33;;;;;;;4.30;2.87;;;;;;;8.68;89.61;99593.52;1730418;82;21222;-68
2022/09/25 01:44:12;;;;;;;2.77;2.40;;;;;;;8.67;89.54;99590.02;1727547;81;21040;-67
2022/09/25 01:46:45;;;;;;;4.75;3.40;;;;;;;8.65;89.51;99586.75;1732533;81;21038;-68
2022/09/25 01:49:30;;;;;;;;;;;;;;;8.63;89.50;99590.18;1733362;82;20963;-68
2022/09/25 01:51:58;;;;;;;5.12;4.70;;;;;;;8.62;89.52;99593.12;1730377;82;20504;-68
2022/09/25 01:54:34;;;;;;;3.90;2.80;;;;;;;8.59;89.49;99589.03;1701134;83;21107;-68
2022/09/25 01:57:20;;;;;;;4.05;3.75;;;;;;;8.56;89.49;99594.89;1716210;82;21623;-68
2022/09/25 01:59:55;;;;;;;2.60;2.40;;;;;;;8.55;89.50;99593.25;1697849;84;21044;-68
2022/09/25 02:02:29;;;;;;;2.52;2.30;;;;;;;8.54;89.56;99585.44;1728917;83;21062;-69
2022/09/25 02:05:11;;;;;;;4.28;2.42;;;;;;;8.53;89.52;99586.52;1700041;81;21042;-68
2022/09/25 02:07:42;;;;;;;2.87;2.60;;;;;;;8.53;89.53;99591.88;1730502;82;21156;-68
2022/09/25 02:10:13;;;;;;;2.98;2.67;;;;;;;8.53;89.42;99600.73;1727653;81;21418;-69
2022/09/25 02:12:48;;;;;;;6.42;3.22;;;;;;;8.52;89.33;99597.77;1673032;85;21092;-69
2022/09/25 02:15:28;;;;;;;2.67;2.47;;;;;;;8.50;89.28;99600.38;1715963;83;21136;-68
2022/09/25 02:20:51;;;;;;;3.22;2.95;;;;;;;8.44;89.38;99595.99;1707841;82;21166;-67
2022/09/25 02:23:24;;;;;;;2.87;2.67;;;;;;;8.40;89.57;99603.67;1702507;84;21027;-69
2022/09/25 02:26:07;;;;;;;3.67;2.80;;;;;;;8.40;89.67;99598.31;1723219;82;21128;-68
2022/09/25 02:28:34;;;;;;;3.05;2.75;;;;;;;8.40;89.70;99600.17;1702724;82;21002;-68
2022/09/25 02:31:04;;;;;;;2.50;2.30;;;;;;;8.38;89.82;99600.95;1669948;84;21095;-68
2022/09/25 02:33:30;;;;;;;3.17;2.90;;;;;;;8.36;89.77;99599.84;1727322;82;21124;-68
2022/09/25 02:35:58;;;;;;;4.30;2.65;;;;;;;8.33;89.91;99600.33;1712506;83;21119;-69
2022/09/25 02:38:25;;;;;;;3.20;2.50;;;;;;;8.34;90.02;99608.66;1699410;84;21054;-69
2022/09/25 02:40:56;;;;;;;3.30;3.00;;;;;;;8.34;89.99;99602.48;1724268;82;21064;-69
2022/09/25 02:43:40;;;;;;;4.15;3.75;;;;;;;8.34;90.02;99599.28;1719615;81;21000;-67
2022/09/25 02:46:18;;;;;;;3.30;3.10;;;;;;;8.35;90.05;99598.73;1718887;83;21758;-68
2022/09/25 02:48:56;;;;;;;3.37;2.60;;;;;;;8.32;90.05;99596.02;1703681;83;20931;-69
2022/09/25 02:51:51;;;;;;;3.87;2.70;;;;;;;8.29;90.11;99604.02;1704968;84;21083;-69
2022/09/25 02:54:38;;;;;;;3.20;2.90;;;;;;;8.27;90.24;99594.54;1704835;84;20984;-68
2022/09/25 02:57:30;;;;;;;3.52;3.22;;;;;;;8.24;90.46;99600.38;1722338;83;20990;-67
2022/09/25 02:59:59;;;;;;;5.42;2.72;;;;;;;8.23;90.53;99605.44;1722748;83;21238;-68
2022/09/25 03:02:28;;;;;;;3.65;3.33;;;;;;;8.18;90.63;99596.78;1691116;83;21051;-69
2022/09/25 03:04:55;;;;;;;4.58;4.05;;;;;;;8.15;90.69;99591.88;1724345;83;21116;-69
2022/09/25 03:07:21;;;;;;;3.75;3.37;;;;;;;8.13;90.89;99600.69;1695161;84;21090;-70
2022/09/25 03:09:49;;;;;;;4.80;2.98;;;;;;;8.12;91.05;99595.56;1709694;82;21146;-68
2022/09/25 03:12:15;;;;;;;4.30;3.30;;;;;;;8.13;91.12;99596.67;1704076;84;21125;-66
2022/09/25 03:14:43;;;;;;;3.90;2.83;;;;;;;8.15;91.15;99599.13;1703988;84;21116;-67
2022/09/25 03:17:10;;;;;;;4.75;2.90;;;;;;;8.16;91.11;99600.20;1706383;82;21591;-68
2022/09/25 03:19:37;;;;;;;4.20;3.80;;;;;;;8.14;91.08;99596.14;1703353;82;21057;-67
2022/09/25 03:22:04;;;;;;;3.15;2.90;;;;;;;8.13;91.09;99597.19;1702682;84;21017;-68
2022/09/25 03:24:33;;;;;;;4.25;3.52;;;;;;;8.11;91.08;99598.76;1702676;84;20899;-67
2022/09/25 03:26:59;;;;;;;5.47;3.00;;;;;;;8.07;91.16;99593.59;1676302;84;20992;-68
2022/09/25 03:29:26;;;;;;;3.35;3.05;;;;;;;8.04;91.29;99599.42;1726411;82;21018;-69
2022/09/25 03:31:52;;;;;;;5.15;3.50;;;;;;;8.01;91.45;99600.43;1724330;82;21041;-68
2022/09/25 03:34:19;;;;;;;5.70;3.17;;;;;;;8.02;91.66;99596.68;1702851;84;21072;-68
2022/09/25 03:36:48;;;;;;;5.12;3.47;;;;;;;8.02;91.71;99598.84;1702578;84;21025;-67
2022/09/25 03:39:16;;;;;;;3.90;3.33;;;;;;;8.01;91.69;99601.22;1703770;82;21060;-69
2022/09/25 03:41:43;;;;;;;5.55;3.52;;;;;;;8.02;91.71;99603.38;1702722;83;21127;-68
2022/09/25 03:44:10;;;;;;;3.58;3.27;;;;;;;8.00;91.69;99609.51;1730150;82;21053;-69
2022/09/25 03:46:36;;;;;;;3.12;2.83;;;;;;;8.00;91.69;99600.13;1678678;84;21029;-67
2022/09/25 03:49:04;;;;;;;3.40;2.87;;;;;;;7.98;91.73;99600.36;1733503;82;21156;-69
2022/09/25 03:51:31;;;;;;;5.30;3.17;;;;;;;7.98;91.81;99607.05;1723039;83;21036;-69
2022/09/25 03:53:58;;;;;;;5.00;3.37;;;;;;;7.99;91.82;99602.52;1701203;84;21635;-69
2022/09/25 03:56:26;;;;;;;3.50;3.20;;;;;;;7.99;91.90;99603.86;1730344;82;21501;-69
2022/09/25 03:58:53;;;;;;;4.30;3.30;;;;;;;7.99;91.79;99604.67;1730477;82;21544;-69
2022/09/25 04:01:20;;;;;;;6.28;5.10;;;;;;;7.98;91.76;99608.91;1716203;83;26992;-69
2022/09/25 04:03:48;;;;;;;3.35;3.05;;;;;;;7.97;91.71;99608.09;1699864;83;21087;-68
2022/09/25 04:06:18;;;;;;;6.65;3.67;;;;;;;7.96;91.71;99612.37;1723841;83;21048;-69
2022/09/25 04:08:47;;;;;;;3.58;3.27;;;;;;;7.94;91.78;99617.95;1711537;83;20952;-67
2022/09/25 04:11:15;;;;;;;5.33;3.33;;;;;;;7.94;91.78;99624.64;1711573;83;21501;-65
2022/09/25 04:13:43;;;;;;;4.25;3.83;;;;;;;7.94;91.86;99628.66;1711813;83;21075;-67
2022/09/25 04:16:10;;;;;;;4.10;3.65;;;;;;;7.95;91.86;99632.16;1730620;82;21038;-67
2022/09/25 04:18:41;;;;;;;4.28;3.95;;;;;;;7.97;91.80;99623.34;1729472;82;21035;-66
2022/09/25 04:21:08;;;;;;;3.85;3.52;;;;;;;7.96;91.68;99624.42;1672950;82;21110;-67
2022/09/25 04:23:35;;;;;;;7.15;6.42;;;;;;;7.95;91.68;99622.78;1668643;86;21586;-67
2022/09/25 04:26:03;;;;;;;4.58;3.80;;;;;;;7.94;91.64;99621.15;1698019;84;21772;-65
2022/09/25 04:28:31;;;;;;;4.12;3.30;;;;;;;7.91;91.71;99617.09;1700827;84;21584;-66
2022/09/25 04:30:58;;;;;;;5.67;3.15;;;;;;;7.95;91.80;99621.44;1710869;82;21565;-66
2022/09/25 04:36:10;;;;;;;3.55;3.25;;;;;;;8.01;91.77;99619.17;1730393;82;21544;-66
2022/09/25 04:38:37;;;;;;;3.80;3.50;;;;;;;8.05;91.62;99628.37;1723877;82;22336;-67
2022/09/25 04:41:05;;;;;;;3.75;3.40;;;;;;;8.08;91.44;99634.58;1682908;82;21548;-67
2022/09/25 04:43:32;;;;;;;7.35;3.47;;;;;;;8.09;91.23;99638.89;1682948;84;21036;-65
2022/09/25 04:46:07;;;;;;;4.42;3.80;;;;;;;8.09;91.13;99630.86;1700659;84;21058;-68
2022/09/25 04:48:36;;;;;;;6.87;4.22;;;;;;;8.10;91.08;99635.99;1730218;81;21030;-65
2022/09/25 04:51:03;;;;;;;4.15;3.75;;;;;;;8.13;91.10;99640.05;1713112;82;21174;-69
2022/09/25 04:53:38;;;;;;;5.42;3.62;;;;;;;8.18;91.02;99645.52;1678018;82;21023;-67
2022/09/25 04:56:06;;;;;;;4.65;3.60;;;;;;;8.22;90.88;99653.38;1710307;83;21144;-66
2022/09/25 04:58:34;;;;;;;3.87;3.58;;;;;;;8.27;90.74;99647.59;1670905;84;21058;-68
2022/09/25 05:01:07;;;;;;;4.80;4.08;;;;;;;8.30;90.47;99653.03;1673037;85;21130;-69
2022/09/25 05:03:35;;;;;;;7.35;4.45;;;;;;;8.32;90.39;99653.62;1704130;81;21017;-67
2022/09/25 05:06:02;;;;;;;8.70;3.80;;;;;;;8.36;90.26;99653.44;1730390;82;20944;-67
2022/09/25 05:08:29;;;;;;;4.12;3.80;;;;;;;8.37;90.10;99648.38;1708063;82;21055;-69
2022/09/25 05:10:56;;;;;;;6.40;4.30;;;;;;;8.40;89.99;99646.55;1729881;81;21035;-68
2022/09/25 05:13:23;;;;;;;3.60;3.30;;;;;;;8.43;89.83;99651.97;1711570;82;21117;-68
2022/09/25 05:15:51;;;;;;;4.40;4.00;;;;;;;8.47;89.67;99655.28;1730604;82;22345;-68
2022/09/25 05:18:23;;;;;;;5.22;4.15;;;;;;;8.52;89.52;99646.01;1730468;81;21580;-69
2022/09/25 05:20:50;;;;;;;4.83;3.90;;;;;;;8.57;89.16;99658.17;1730399;82;21551;-67
2022/09/25 05:23:16;;;;;;;9.55;4.20;;;;;;;8.63;88.83;99657.20;1701216;84;21615;-66
2022/09/25 05:25:43;;;;;;;5.17;3.87;;;;;;;8.66;88.49;99661.29;1730234;81;21054;-66
2022/09/25 05:28:10;;;;;;;5.80;3.62;;;;;;;8.69;88.16;99658.13;1712143;83;21923;-67
2022/09/25 05:30:37;;;;;;;4.08;3.60;;;;;;;8.70;87.78;99660.58;1729752;82;21522;-67
2022/09/25 05:33:05;;;;;;;6.30;3.95;;;;;;;8.75;87.75;99679.97;1698068;84;21087;-66
2022/09/25 05:35:32;;;;;;;4.42;3.85;;;;;;;8.78;87.39;99667.97;1730365;82;20956;-68
2022/09/25 05:37:59;;;;;;;3.72;3.33;;;;;;;8.82;87.09;99675.82;1730271;82;21067;-67
2022/09/25 05:40:26;;;;;;;4.03;3.60;;;;;;;8.87;86.95;99682.63;1730189;82;21207;-68
2022/09/25 05:42:54;;;;;;;5.37;3.47;;;;;;;8.88;86.73;99667.61;1730261;81;21012;-66
2022/09/25 05:45:22;;;;;;;4.05;3.70;;;;;;;8.92;86.47;99670.66;1729599;81;21011;-67
2022/09/25 05:48:02;;;;;;;4.85;3.25;;;;;;;8.95;86.18;99667.48;1730300;82;21595;-66
2022/09/25 05:50:35;;;;;;;8.50;4.17;;;;;;;9.02;86.17;99677.52;1729157;81;22385;-66
2022/09/25 05:53:01;;;;;;;4.17;3.77;;;;;;;9.09;86.07;99674.19;1710815;81;21164;-67
2022/09/25 05:55:29;;;;;;;4.67;4.22;;;;;;;9.15;85.84;99678.08;1699676;84;21015;-66
2022/09/25 05:58:02;;;;;;;6.22;4.05;;;;;;;9.21;85.25;99677.61;1687891;84;21439;-66
2022/09/25 06:00:33;;;;;;;5.00;4.28;;;;;;;9.24;84.82;99690.56;1730172;82;21028;-68
2022/09/25 06:03:00;;;;;;;6.42;3.90;;;;;;;9.24;84.62;99689.22;1698477;84;21091;-66
2022/09/25 06:05:27;;;;;;;4.08;3.55;;;;;;;9.25;84.47;99695.41;1701164;83;22017;-65
2022/09/25 06:07:54;;;;;;;4.22;3.83;;;;;;;9.26;84.52;99680.91;1722795;81;21045;-66
2022/09/25 06:10:21;;;;;;;4.15;3.85;;;;;;;9.31;84.72;99678.32;1730024;82;21065;-67
2022/09/25 06:12:48;;;;;;;5.20;4.47;;;;;;;9.37;84.48;99698.31;1730063;82;21596;-66
2022/09/25 06:15:15;;;;;;;6.33;3.20;;;;;;;9.42;84.31;99678.79;1730469;82;21651;-66
2022/09/25 06:17:42;;;;;;;5.42;3.67;;;;;;;9.46;84.28;99686.64;1699620;84;21096;-67
2022/09/25 06:20:10;;;;;;;4.85;4.45;;;;;;;9.53;84.38;99711.48;1730185;82;20983;-66
2022/09/25 06:22:37;;;;;;;6.28;4.15;;;;;;;9.56;83.53;99694.34;1699414;84;22220;-66
2022/09/25 06:25:05;;;;;;;7.35;4.05;;;;;;;9.61;83.45;99682.34;1729812;82;21551;-67
2022/09/25 06:27:32;;;;;;;8.23;4.45;;;;;;;9.68;83.10;99699.66;1707385;82;21066;-67
2022/09/25 06:30:00;;;;;;;4.53;3.72;;;;;;;9.74;82.85;99683.06;1708541;82;21247;-68
2022/09/25 06:32:26;;;;;;;4.05;3.75;;;;;;;9.81;82.74;99693.14;1730157;82;21114;-69
2022/09/25 06:34:56;;;;;;;5.10;3.77;;;;;;;9.87;82.55;99692.16;1730627;82;21022;-67
2022/09/25 06:37:22;;;;;;;3.80;3.37;;;;;;;9.92;82.45;99690.38;1730214;82;21026;-66
2022/09/25 06:39:49;;;;;;;4.53;4.00;;;;;;;9.97;82.30;99688.30;1698363;82;21082;-67
2022/09/25 06:42:15;;;;;;;3.80;3.40;;;;;;;10.05;82.17;99691.38;1728360;82;21068;-66
2022/09/25 06:44:43;;;;;;;4.87;3.62;;;;;;;10.13;81.65;99695.50;1719811;83;21481;-66
2022/09/25 06:47:12;;;;;;;5.72;3.58;;;;;;;10.22;81.18;99702.64;1723860;83;20978;-67
2022/09/25 06:49:38;;;;;;;4.65;3.37;;;;;;;10.29;80.55;99689.33;1724053;83;22178;-66
2022/09/25 06:52:06;;;;;;;4.42;3.98;;;;;;;10.37;80.71;99706.36;1721239;83;20988;-66
2022/09/25 06:54:33;;;;;;;3.30;2.87;;;;;;;10.43;80.52;99691.94;1721355;83;21277;-65
2022/09/25 06:56:59;;;;;;;4.15;3.75;;;;;;;10.50;80.55;99695.80;1691593;83;21518;-67
2022/09/25 06:59:26;;;;;;;3.62;3.30;;;;;;;10.56;80.13;99692.62;1693915;84;21568;-66
2022/09/25 07:01:53;;;;;;;3.85;3.55;;;;;;;10.62;80.16;99689.76;1720810;82;21111;-69
2022/09/25 07:04:20;;;;;;;5.28;3.80;;;;;;;10.71;80.08;99701.70;1715378;83;21023;-67
2022/09/25 07:06:49;;;;;;;3.98;3.67;;;;;;;10.80;79.56;99694.81;1693571;84;21192;-66
2022/09/25 07:09:16;;;;;;;4.90;3.58;;;;;;;10.88;79.18;99711.06;1723570;82;20998;-66
2022/09/25 07:11:42;;;;;;;3.50;3.20;;;;;;;10.94;79.10;99707.34;1720732;83;21129;-68
2022/09/25 07:14:10;;;;;;;5.25;4.33;;;;;;;11.00;78.54;99711.73;1720805;83;20992;-67
2022/09/25 07:16:36;;;;;;;3.75;3.45;;;;;;;11.06;78.29;99694.58;1721023;83;20967;-67
2022/09/25 07:19:03;;;;;;;4.15;3.75;;;;;;;11.16;77.68;99705.99;1714828;83;21253;-66
2022/09/25 07:21:30;;;;;;;4.00;3.40;;;;;;;11.24;77.53;99707.69;1693377;84;20943;-69
2022/09/25 07:23:57;;;;;;;4.47;4.08;;;;;;;11.35;77.09;99693.80;1724035;83;20998;-66
2022/09/25 07:26:28;;;;;;;5.30;3.92;;;;;;;11.43;76.58;99693.33;1723726;82;21055;-65
2022/09/25 07:29:00;;;;;;;3.60;3.30;;;;;;;11.50;76.17;99695.30;1724259;83;21044;-67
2022/09/25 07:31:29;;;;;;;6.12;3.45;;;;;;;11.56;74.07;99703.68;1720925;83;21157;-66
2022/09/25 07:33:58;;;;;;;6.20;3.17;;;;;;;11.62;73.07;99723.40;1720981;83;21572;-67
2022/09/25 07:36:25;;;;;;;6.00;3.52;;;;;;;11.65;72.54;99695.44;1720883;83;20937;-67
2022/09/25 07:38:51;;;;;;;3.75;3.45;;;;;;;11.70;72.55;99698.70;1720378;83;21074;-66
2022/09/25 07:41:19;;;;;;;7.45;3.95;;;;;;;11.74;72.78;99687.19;1720414;83;21051;-66
2022/09/25 07:43:55;;;;;;;4.10;3.70;;;;;;;11.79;72.96;99688.58;1730050;82;21188;-67
2022/09/25 07:46:21;;;;;;;6.03;3.67;;;;;;;11.87;73.04;99681.89;1750073;81;21050;-69
2022/09/25 07:48:49;;;;;;;4.00;3.60;;;;;;;11.97;71.73;99681.14;1742365;81;20961;-66
2022/09/25 07:51:16;;;;;;;5.60;3.27;;;;;;;12.06;71.75;99683.63;1733192;82;21071;-66
2022/09/25 07:53:44;;;;;;;3.47;3.17;;;;;;;12.15;70.35;99704.45;1673175;84;21058;-66
2022/09/25 07:56:12;;;;;;;3.47;3.17;;;;;;;12.24;68.88;99688.06;1712035;83;21301;-67
2022/09/25 07:58:40;;;;;;;4.58;2.80;;;;;;;12.33;69.21;99689.72;1730376;82;21007;-66
2022/09/25 08:01:10;;;;;;;6.33;3.42;;;;;;;12.40;69.35;99693.02;1711892;83;21130;-68
2022/09/25 08:03:36;;;;;;;4.53;3.12;;;;;;;12.46;68.83;99703.30;1710513;83;21418;-68
2022/09/25 08:06:08;;;;;;;3.10;2.77;;;;;;;12.51;67.84;99701.45;1700790;84;21564;-67
2022/09/25 08:08:35;;;;;;;3.98;2.95;;;;;;;12.58;68.04;99695.80;1684301;83;21648;-68
2022/09/25 08:11:12;;;;;;;2.72;2.52;;;;;;;12.62;65.90;99696.89;1730488;82;21632;-66
2022/09/25 08:13:41;;;;;;;4.35;2.67;;;;;;;12.64;65.95;99715.80;1701276;84;21047;-66
2022/09/25 08:16:12;;;;;;;4.03;2.70;;;;;;;12.68;66.13;99695.31;1730551;82;21010;-68
2022/09/25 08:18:42;;;;;;;12.75;3.12;;;;;;;12.72;65.51;99693.42;1701615;84;20947;-67
2022/09/25 08:21:09;;;;;;;3.20;2.90;;;;;;;12.77;65.12;99702.36;1675126;82;21805;-65
2022/09/25 08:23:36;;;;;;;5.92;2.83;;;;;;;12.81;64.28;99702.63;1725184;82;21065;-67
2022/09/25 08:26:03;;;;;;;3.90;3.15;;;;;;;12.85;64.46;99696.47;1730259;82;21069;-65
2022/09/25 08:28:30;;;;;;;2.77;2.58;;;;;;;12.88;64.15;99694.58;1730193;82;21077;-66
2022/09/25 08:30:58;;;;;;;10.88;2.90;;;;;;;12.92;63.84;99692.16;1730366;82;21004;-67
2022/09/25 08:33:25;;;;;;;3.52;2.67;;;;;;;12.95;64.23;99698.39;1699426;84;21552;-67
2022/09/25 08:36:00;;;;;;;2.98;2.67;;;;;;;12.99;64.05;99692.20;1730386;81;21603;-66
2022/09/25 08:38:28;;;;;;;4.15;2.87;;;;;;;13.05;63.50;99694.34;1711963;83;21023;-64
2022/09/25 08:40:59;;;;;;;3.58;3.22;;;;;;;13.12;63.52;99684.69;1729965;82;21064;-66
2022/09/25 08:43:26;;;;;;;2.77;2.58;;;;;;;13.18;63.01;99680.39;1699884;84;21587;-66
2022/09/25 08:49:01;;;;;;;2.95;2.70;;;;;;;13.32;62.08;99692.30;1716691;83;21090;-67
2022/09/25 08:51:29;;;;;;;2.98;2.77;;;;;;;13.37;61.03;99712.58;1715896;83;21048;-68
2022/09/25 08:53:57;;;;;;;3.60;2.92;;;;;;;13.41;60.95;99687.18;1703484;84;21025;-65
2022/09/25 08:56:24;;;;;;;3.33;2.50;;;;;;;13.42;61.24;99694.21;1720860;83;21127;-69
2022/09/25 08:59:09;;;;;;;2.80;2.55;;;;;;;13.43;61.10;99689.05;1700860;84;21638;-67
2022/09/25 09:01:46;;;;;;;2.62;2.37;;;;;;;13.44;61.19;99700.95;1716881;82;21059;-66
2022/09/25 09:04:39;;;;;;;4.20;2.85;;;;;;;13.46;61.51;99683.14;1728827;82;21042;-66
2022/09/25 09:07:28;;;;;;;3.60;3.00;;;;;;;13.50;61.68;99678.27;1713250;82;21116;-69
2022/09/25 09:10:36;;;;;;;2.58;2.37;;;;;;;13.58;61.31;99686.38;1716232;82;21111;-67
2022/09/25 09:13:43;;;;;;;2.60;2.40;;;;;;;13.67;61.41;99696.91;1643771;87;21171;-70
2022/09/25 09:16:45;;;;;;;2.75;2.35;;;;;;;13.74;60.37;99672.33;1642464;85;21110;-66
2022/09/25 09:19:12;;;;;;;2.33;2.10;;;;;;;13.83;60.01;99672.87;1695387;82;20959;-67
2022/09/25 09:21:57;;;;;;;3.62;2.35;;;;;;;13.92;59.69;99694.22;1704819;84;21054;-66
2022/09/25 09:24:29;;;;;;;3.05;2.75;;;;;;;13.96;59.36;99680.42;1706559;82;21195;-66
2022/09/25 09:27:47;;;;;;;2.65;2.45;;;;;;;13.94;59.12;99669.62;1730840;81;21186;-67
2022/09/25 09:30:21;;;;;;;2.22;1.92;;;;;;;14.01;59.22;99658.50;1706753;82;21103;-66
2022/09/25 09:33:12;;;;;;;5.20;2.70;;;;;;;14.12;58.57;99671.75;1734251;82;21078;-67
2022/09/25 09:36:08;;;;;;;2.37;2.17;;;;;;;14.22;58.68;99661.45;1734202;82;20994;-65
2022/09/25 09:39:15;;;;;;;3.58;2.50;;;;;;;14.31;59.03;99653.04;1713963;83;21179;-66
2022/09/25 09:42:08;;;;;;;2.42;2.10;;;;;;;14.44;58.68;99659.78;1701740;84;21323;-68
2022/09/25 09:45:08;;;;;;;2.65;1.98;;;;;;;14.54;56.63;99665.16;1647711;86;21151;-67
2022/09/25 09:47:44;;;;;;;2.33;1.92;;;;;;;14.56;55.56;99673.30;1714666;83;21079;-66
2022/09/25 09:50:29;;;;;;;4.95;2.00;;;;;;;14.55;55.79;99665.44;1700458;83;22225;-68
2022/09/25 09:53:04;;;;;;;1.72;1.62;;;;;;;14.55;55.56;99650.55;1693189;83;21063;-69
2022/09/25 09:55:47;;;;;;;2.62;1.90;;;;;;;14.52;55.05;99656.53;1682008;84;21525;-65
2022/09/25 09:58:24;;;;;;;3.55;2.08;;;;;;;14.49;55.13;99645.70;1691631;84;21107;-66
2022/09/25 10:00:51;;;;;;;5.62;1.98;;;;;;;14.48;55.48;99658.98;1694711;83;21625;-69
2022/09/25 10:03:31;;;;;;;3.98;2.50;;;;;;;14.49;55.53;99650.30;1710917;83;21083;-67
2022/09/25 10:06:02;;;;;;;3.05;2.62;;;;;;;14.51;55.91;99647.59;1712701;83;21087;-67
2022/09/25 10:08:28;;;;;;;2.98;2.67;;;;;;;14.59;55.87;99652.97;1713968;83;21259;-71
2022/09/25 10:10:58;;;;;;;2.98;2.70;;;;;;;14.62;56.33;99641.06;1694354;84;21548;-70
2022/09/25 10:13:34;;;;;;;3.20;2.90;;;;;;;14.67;56.55;99638.88;1702335;82;21629;-69
2022/09/25 10:16:17;;;;;;;4.20;3.85;;;;;;;14.71;56.75;99639.39;1694731;84;21013;-73
2022/09/25 10:19:01;;;;;;;2.83;2.62;;;;;;;14.76;56.46;99644.79;1722867;82;20956;-68
2022/09/25 10:21:31;;;;;;;;;;;;;;;14.80;55.89;99648.55;1723436;83;21321;-69
2022/09/25 10:23:58;;;;;;;3.15;2.12;;;;;;;14.83;55.36;99643.11;1717023;82;20203;-70
2022/09/25 10:26:36;;;;;;;4.30;2.70;;;;;;;14.83;55.09;99659.36;1692273;84;21016;-69
2022/09/25 10:29:25;;;;;;;4.28;2.85;;;;;;;14.84;55.16;99639.33;1710134;83;21068;-69
2022/09/25 10:32:03;;;;;;;2.87;2.58;;;;;;;14.83;55.20;99641.76;1675493;84;21571;-70
2022/09/25 10:34:30;;;;;;;4.47;3.02;;;;;;;14.82;55.10;99645.01;1707916;83;21066;-68
2022/09/25 10:36:57;;;;;;;3.62;2.83;;;;;;;14.80;55.34;99658.03;1708843;83;21201;-69
2022/09/25 10:39:34;;;;;;;4.78;2.65;;;;;;;14.79;55.25;99652.34;1722332;83;21018;-69
2022/09/25 10:42:07;;;;;;;2.50;2.30;;;;;;;14.78;54.87;99653.42;1710758;82;21543;-73
2022/09/25 10:44:37;;;;;;;2.87;2.60;;;;;;;14.73;55.31;99648.03;1685694;83;21104;-73
2022/09/25 10:50:15;;;;;;;2.90;2.70;;;;;;;14.70;55.15;99646.44;1710893;83;20921;-67
2022/09/25 10:52:49;;;;;;;2.43;2.23;;;;;;;14.73;55.36;99644.52;1703542;83;20992;-66
2022/09/25 10:55:33;;;;;;;2.92;2.72;;;;;;;14.85;54.99;99638.24;1703549;83;21750;-68
2022/09/25 10:58:13;;;;;;;2.52;2.17;;;;;;;14.94;54.61;99645.23;1675340;83;21073;-69
2022/09/25 11:00:52;;;;;;;3.90;2.25;;;;;;;15.00;54.36;99634.09;1723791;82;21106;-69
2022/09/25 11:03:38;;;;;;;5.40;2.47;;;;;;;15.06;54.49;99624.83;1697620;83;20953;-67
2022/09/25 11:06:25;;;;;;;2.22;2.02;;;;;;;15.12;54.27;99621.00;1713814;83;21060;-68
2022/09/25 11:09:18;;;;;;;2.92;2.62;;;;;;;15.20;53.62;99616.91;1698502;84;20999;-68
2022/09/25 11:11:45;;;;;;;3.80;2.47;;;;;;;15.30;53.44;99616.80;1686902;83;20969;-68
2022/09/25 11:14:21;;;;;;;2.47;2.27;;;;;;;15.36;53.35;99618.39;1693509;83;21104;-67
2022/09/25 11:16:53;;;;;;;3.72;2.60;;;;;;;15.39;53.22;99611.61;1716829;83;21052;-73
2022/09/25 11:19:27;;;;;;;4.10;2.95;;;;;;;15.39;53.53;99618.39;1717568;83;21043;-74
2022/09/25 11:22:18;;;;;;;5.55;3.27;;;;;;;15.44;53.22;99613.74;1698654;83;21005;-71
2022/09/25 11:25:06;;;;;;;4.40;2.50;;;;;;;15.55;53.41;99627.48;1714454;83;21150;-67
2022/09/25 11:27:47;;;;;;;2.20;2.00;;;;;;;15.68;52.51;99616.55;1707231;83;21214;-68
2022/09/25 11:30:19;;;;;;;2.22;2.02;;;;;;;15.85;50.34;99621.53;1671736;84;21032;-67
2022/09/25 11:33:03;;;;;;;2.05;1.60;;;;;;;16.00;49.77;99598.33;1723691;82;20921;-68
2022/09/25 11:35:55;;;;;;;2.20;1.85;;;;;;;16.15;49.32;99613.09;1720640;82;21063;-66
2022/09/25 11:41:56;;;;;;;2.33;2.12;;;;;;;16.33;47.20;99606.91;1711326;83;22911;-67
2022/09/25 11:44:41;;;;;;;6.40;2.05;;;;;;;16.22;47.60;99609.47;1692550;82;21269;-66
2022/09/25 11:47:23;;;;;;;2.25;1.82;;;;;;;16.11;47.78;99633.76;1723770;83;21058;-66
2022/09/25 11:49:53;;;;;;;2.35;2.15;;;;;;;16.01;48.01;99612.16;1710688;83;21476;-68
2022/09/25 11:52:43;;;;;;;2.62;2.22;;;;;;;15.93;48.49;99614.12;1696305;83;21054;-69
2022/09/25 11:55:48;;;;;;;3.02;2.10;;;;;;;15.83;48.96;99606.89;1692160;84;21143;-65
2022/09/25 11:58:38;;;;;;;3.52;2.25;;;;;;;15.78;49.37;99602.88;1712175;83;21012;-66
2022/09/25 12:01:33;;;;;;;2.37;2.17;;;;;;;15.77;49.81;99604.53;1720062;83;21008;-66
2022/09/25 12:04:31;;;;;;;2.08;1.98;;;;;;;15.77;49.49;99608.60;1704368;83;21080;-67
2022/09/25 12:07:09;;;;;;;4.47;2.10;;;;;;;15.74;49.60;99599.66;1720675;83;20949;-67
2022/09/25 12:10:03;;;;;;;2.45;1.82;;;;;;;15.82;49.91;99602.59;1714975;83;21088;-66
2022/09/25 12:12:58;;;;;;;1.65;1.55;;;;;;;15.92;49.76;99603.03;1686983;83;21070;-66
2022/09/25 12:15:48;;;;;;;1.92;1.82;;;;;;;15.96;49.11;99604.88;1703204;83;21110;-67
2022/09/25 12:18:45;;;;;;;2.35;2.10;;;;;;;15.96;49.15;99617.09;1703258;83;21039;-67
2022/09/25 12:21:17;;;;;;;2.27;1.87;;;;;;;15.90;48.88;99612.80;1703375;84;21062;-67
2022/09/25 12:23:58;;;;;;;3.95;2.30;;;;;;;15.80;49.13;99617.51;1703670;83;21574;-68